Time;durP1;ratioP1;P1;durP2;ratioP2;P2;SDS_P1;SDS_P2;PMS_P1;PMS_P2;Temp;Humidity;BMP_temperature;BMP_pressure;BME280_temperature;BME280_humidity;BME280_pressure;Samples;Min_cycle;Max_cycle;Signal;HPM_P1;HPM_P2
2022/05/17 00:01:15;;;;;;;;;;;15.60;78.90;;;;;;5020885;28;19910;-64
2022/05/17 00:03:44;;;;;;;;;;;15.70;79.30;;;;;;5017226;28;19905;-66
2022/05/17 00:06:10;;;;;;;;;;;15.90;77.00;;;;;;5018726;28;19947;-65
2022/05/17 00:08:39;;;;;;;;;;;16.10;73.90;;;;;;5015967;28;19917;-66
2022/05/17 00:11:13;;;;;;;;;;;16.30;75.50;;;;;;5017277;28;19945;-64
2022/05/17 00:13:40;;;;;;;;;;;16.40;73.00;;;;;;5019171;28;19924;-64
2022/05/17 00:16:07;;;;;;;;;;;16.50;73.00;;;;;;5018569;28;20238;-65
2022/05/17 00:18:33;;;;;;;;;;;16.60;73.50;;;;;;5017161;28;19909;-64
2022/05/17 00:21:00;;;;;;;;;;;16.70;73.10;;;;;;5016212;28;20008;-65
2022/05/17 00:23:27;;;;;;;;;;;16.80;73.20;;;;;;5023974;28;19992;-64
2022/05/17 00:25:54;;;;;;;;;;;17.00;70.20;;;;;;5018541;28;19909;-63
2022/05/17 00:28:21;;;;;;;;;;;17.10;69.70;;;;;;5013828;28;19992;-64
2022/05/17 00:30:49;;;;;;;;;;;17.10;72.30;;;;;;5023689;28;19920;-65
2022/05/17 00:33:15;;;;;;;;;;;17.20;70.90;;;;;;5016928;28;19913;-64
2022/05/17 00:35:45;;;;;;;;;;;17.30;71.50;;;;;;5018275;28;20381;-64
2022/05/17 00:38:12;;;;;;;;;;;17.50;72.40;;;;;;5017766;28;19906;-64
2022/05/17 00:40:40;;;;;;;;;;;17.60;71.00;;;;;;5019667;28;20032;-65
2022/05/17 00:43:10;;;;;;;;;;;17.70;71.70;;;;;;5014954;28;19913;-63
2022/05/17 00:45:40;;;;;;;;;;;17.80;69.20;;;;;;5014801;28;19909;-63
2022/05/17 00:48:08;;;;;;;;;;;18.00;68.50;;;;;;5018446;28;19909;-63
2022/05/17 00:50:36;;;;;;;;;;;18.10;66.50;;;;;;5017283;28;19972;-63
2022/05/17 00:53:10;;;;;;;;;;;18.30;67.20;;;;;;5013962;28;19909;-63
2022/05/17 00:55:39;;;;;;;;;;;18.40;67.40;;;;;;5016060;28;19948;-63
2022/05/17 00:58:06;;;;;;;;;;;18.40;65.50;;;;;;5012722;28;19916;-64
2022/05/17 01:00:36;;;;;;;;;;;18.50;62.60;;;;;;5016716;28;20453;-64
2022/05/17 01:03:06;;;;;;;;;;;18.60;64.40;;;;;;5019134;28;19991;-63
2022/05/17 01:05:35;;;;;;;;;;;18.70;62.70;;;;;;5017257;28;20369;-65
2022/05/17 01:08:02;;;;;;;;;;;18.80;62.20;;;;;;5015998;28;20444;-64
2022/05/17 01:10:29;;;;;;;;;;;18.80;63.10;;;;;;5017005;28;19913;-64
2022/05/17 01:15:42;;;;;;;;;;;18.90;60.50;;;;;;5020076;28;19972;-65
2022/05/17 01:18:09;;;;;;;;;;;19.00;62.60;;;;;;5019587;28;19920;-66
2022/05/17 01:20:36;;;;;;;;;;;19.10;63.00;;;;;;5019787;28;20370;-65
2022/05/17 01:23:02;;;;;;;;;;;19.20;61.60;;;;;;5017175;28;19913;-65
2022/05/17 01:25:29;;;;;;;;;;;19.30;62.90;;;;;;5018586;28;19913;-65
2022/05/17 01:28:01;;;;;;;;;;;19.40;59.60;;;;;;5015137;28;19921;-64
2022/05/17 01:30:29;;;;;;;;;;;19.50;60.80;;;;;;5017619;28;19925;-65
2022/05/17 01:32:55;;;;;;;;;;;19.60;58.30;;;;;;5018705;28;19980;-65
2022/05/17 01:35:22;;;;;;;;;;;19.50;58.90;;;;;;5015937;28;19901;-64
2022/05/17 01:37:55;;;;;;;;;;;19.60;60.70;;;;;;5013232;28;20386;-64
2022/05/17 01:40:22;;;;;;;;;;;19.60;58.90;;;;;;5013917;28;19955;-63
2022/05/17 01:42:48;;;;;;;;;;;19.60;57.60;;;;;;5022576;28;19971;-63
2022/05/17 01:45:15;;;;;;;;;;;19.70;56.50;;;;;;5020813;28;19992;-63
2022/05/17 01:47:42;;;;;;;;;;;19.70;58.10;;;;;;5029466;28;19912;-63
2022/05/17 01:50:09;;;;;;;;;;;19.80;58.50;;;;;;5013359;28;19912;-63
2022/05/17 01:52:35;;;;;;;;;;;19.80;58.20;;;;;;5026214;28;19909;-63
2022/05/17 01:55:02;;;;;;;;;;;19.70;58.50;;;;;;5020543;28;19959;-64
2022/05/17 01:57:28;;;;;;;;;;;19.70;57.80;;;;;;5014768;28;19972;-63
2022/05/17 01:59:55;;;;;;;;;;;19.70;59.30;;;;;;5026032;28;19905;-64
2022/05/17 02:02:22;;;;;;;;;;;19.70;55.90;;;;;;5018161;28;19913;-63
2022/05/17 02:04:48;;;;;;;;;;;19.70;57.60;;;;;;5018215;28;19960;-62
2022/05/17 02:07:15;;;;;;;;;;;19.60;55.60;;;;;;5019857;28;19996;-63
2022/05/17 02:09:42;;;;;;;;;;;19.60;54.60;;;;;;5018467;28;20001;-64
2022/05/17 02:12:09;;;;;;;;;;;19.60;57.50;;;;;;5017952;28;20645;-64
2022/05/17 02:14:35;;;;;;;;;;;19.60;56.20;;;;;;5018096;28;19996;-64
2022/05/17 02:17:02;;;;;;;;;;;19.80;58.90;;;;;;5017588;28;19917;-64
2022/05/17 02:19:30;;;;;;;;;;;19.90;57.80;;;;;;5019177;28;19905;-64
2022/05/17 02:21:56;;;;;;;;;;;20.10;59.50;;;;;;5018267;28;19905;-63
2022/05/17 02:24:23;;;;;;;;;;;20.30;58.80;;;;;;5018503;28;19951;-64
2022/05/17 02:26:49;;;;;;;;;;;20.40;57.80;;;;;;5016932;28;19913;-64
2022/05/17 02:29:16;;;;;;;;;;;20.40;53.80;;;;;;5018013;28;19960;-64
2022/05/17 02:31:43;;;;;;;;;;;20.30;51.70;;;;;;5018307;28;20280;-64
2022/05/17 02:34:10;;;;;;;;;;;20.30;54.30;;;;;;5017139;28;19952;-64
2022/05/17 02:36:36;;;;;;;;;;;20.40;54.50;;;;;;5018512;28;19913;-64
2022/05/17 02:39:03;;;;;;;;;;;20.40;54.40;;;;;;5019458;28;19909;-65
2022/05/17 02:41:30;;;;;;;;;;;20.50;53.80;;;;;;5016342;28;19913;-65
2022/05/17 02:43:56;;;;;;;;;;;20.40;52.40;;;;;;5018081;28;19905;-64
2022/05/17 02:46:23;;;;;;;;;;;20.30;53.90;;;;;;5018563;28;19947;-64
2022/05/17 02:48:49;;;;;;;;;;;20.10;51.60;;;;;;5017087;28;19967;-65
2022/05/17 02:51:17;;;;;;;;;;;20.10;54.00;;;;;;5017334;28;19917;-65
2022/05/17 02:53:44;;;;;;;;;;;20.10;52.90;;;;;;5018564;28;20377;-65
2022/05/17 02:56:11;;;;;;;;;;;20.20;53.20;;;;;;5014687;28;19913;-65
2022/05/17 02:58:37;;;;;;;;;;;20.30;52.70;;;;;;5023082;28;20317;-65
2022/05/17 03:01:06;;;;;;;;;;;20.30;52.60;;;;;;5023237;28;19909;-64
2022/05/17 03:03:32;;;;;;;;;;;20.30;52.50;;;;;;5019504;28;19905;-66
2022/05/17 03:05:59;;;;;;;;;;;20.30;53.60;;;;;;5022084;28;20047;-65
2022/05/17 03:08:26;;;;;;;;;;;20.30;55.20;;;;;;5021451;28;19917;-65
2022/05/17 03:10:52;;;;;;;;;;;20.40;54.90;;;;;;5023295;28;19991;-65
2022/05/17 03:13:19;;;;;;;;;;;20.50;53.00;;;;;;5020879;28;20372;-66
2022/05/17 03:15:46;;;;;;;;;;;20.40;53.40;;;;;;5019349;28;20000;-67
2022/05/17 03:18:12;;;;;;;;;;;20.80;55.80;;;;;;5023527;28;19953;-66
2022/05/17 03:20:39;;;;;;;;;;;21.40;54.60;;;;;;5020089;28;19912;-67
2022/05/17 03:23:05;;;;;;;;;;;21.90;57.70;;;;;;5020212;28;19905;-66
2022/05/17 03:25:32;;;;;;;;;;;22.40;61.80;;;;;;5018491;28;19917;-64
2022/05/17 03:27:59;;;;;;;;;;;21.00;84.50;;;;;;5020637;28;19941;-65
2022/05/17 03:30:25;;;;;;;;;;;19.70;76.00;;;;;;5021040;28;19905;-66
2022/05/17 03:32:52;;;;;;;;;;;19.80;63.80;;;;;;5021690;28;20526;-66
2022/05/17 03:35:19;;;;;;;;;;;20.40;67.50;;;;;;5021847;28;19964;-67
2022/05/17 03:37:45;;;;;;;;;;;20.60;58.10;;;;;;5019362;28;20403;-69
2022/05/17 03:40:12;;;;;;;;;;;20.70;57.90;;;;;;5018679;28;19931;-68
2022/05/17 03:42:39;;;;;;;;;;;20.60;54.60;;;;;;5021410;28;19909;-68
2022/05/17 03:45:06;;;;;;;;;;;20.60;58.50;;;;;;5018883;28;19909;-68
2022/05/17 03:47:33;;;;;;;;;;;20.60;55.50;;;;;;5021562;28;19909;-70
2022/05/17 03:49:59;;;;;;;;;;;20.50;52.30;;;;;;5019003;28;20353;-70
2022/05/17 03:52:26;;;;;;;;;;;20.50;53.00;;;;;;5020089;28;19924;-68
2022/05/17 03:54:57;;;;;;;;;;;20.40;52.80;;;;;;5026575;28;19924;-69
2022/05/17 03:57:24;;;;;;;;;;;20.40;55.60;;;;;;5022175;28;19921;-69
2022/05/17 03:59:51;;;;;;;;;;;20.40;50.60;;;;;;5024867;28;20371;-72
2022/05/17 04:02:18;;;;;;;;;;;20.40;53.40;;;;;;5026610;28;19935;-71
2022/05/17 04:04:44;;;;;;;;;;;20.40;53.40;;;;;;5023694;28;19989;-68
2022/05/17 04:07:11;;;;;;;;;;;20.40;53.80;;;;;;5014001;28;19924;-70
2022/05/17 04:09:37;;;;;;;;;;;20.50;52.80;;;;;;5024745;28;19988;-68
2022/05/17 04:12:04;;;;;;;;;;;20.40;51.90;;;;;;5023897;28;19991;-68
2022/05/17 04:14:31;;;;;;;;;;;20.50;52.70;;;;;;5028615;28;19908;-68
2022/05/17 04:16:57;;;;;;;;;;;20.60;53.20;;;;;;5029991;28;19971;-68
2022/05/17 04:19:24;;;;;;;;;;;20.50;51.80;;;;;;5021787;28;19919;-68
2022/05/17 04:21:51;;;;;;;;;;;20.50;51.20;;;;;;5017587;28;20368;-68
2022/05/17 04:24:17;;;;;;;;;;;20.50;50.70;;;;;;5020433;28;19921;-68
2022/05/17 04:26:44;;;;;;;;;;;20.50;51.40;;;;;;5018096;28;20008;-68
2022/05/17 04:29:11;;;;;;;;;;;20.50;51.10;;;;;;5026486;28;19913;-68
2022/05/17 04:31:37;;;;;;;;;;;20.50;49.90;;;;;;5022556;28;20031;-67
2022/05/17 04:34:04;;;;;;;;;;;20.40;50.30;;;;;;5016501;28;20346;-68
2022/05/17 04:36:32;;;;;;;;;;;20.30;50.80;;;;;;5022496;28;19918;-68
2022/05/17 04:38:59;;;;;;;;;;;20.20;50.60;;;;;;5021615;28;20373;-69
2022/05/17 04:41:25;;;;;;;;;;;20.20;51.50;;;;;;5023337;28;20357;-67
2022/05/17 04:43:52;;;;;;;;;;;20.30;54.00;;;;;;5018823;28;20285;-69
2022/05/17 04:46:19;;;;;;;;;;;20.30;52.00;;;;;;5025893;28;19988;-69
2022/05/17 04:48:45;;;;;;;;;;;20.30;54.00;;;;;;5020406;28;20289;-66
2022/05/17 04:51:13;;;;;;;;;;;20.20;53.70;;;;;;5019467;28;19931;-66
2022/05/17 04:53:40;;;;;;;;;;;20.10;51.80;;;;;;5019762;28;20340;-66
2022/05/17 04:56:07;;;;;;;;;;;20.10;50.90;;;;;;5016438;28;19931;-66
2022/05/17 04:58:34;;;;;;;;;;;20.00;52.00;;;;;;5015245;28;19909;-66
2022/05/17 05:01:01;;;;;;;;;;;19.90;52.60;;;;;;5021949;28;19920;-66
2022/05/17 05:03:28;;;;;;;;;;;19.90;52.10;;;;;;5015181;28;20359;-66
2022/05/17 05:05:54;;;;;;;;;;;19.90;51.30;;;;;;5011098;28;19940;-66
2022/05/17 05:08:24;;;;;;;;;;;19.90;51.90;;;;;;5024415;28;19933;-66
2022/05/17 05:10:50;;;;;;;;;;;19.90;53.80;;;;;;5012654;28;19940;-66
2022/05/17 05:13:18;;;;;;;;;;;19.80;53.00;;;;;;5015911;28;20285;-66
2022/05/17 05:15:45;;;;;;;;;;;19.80;51.30;;;;;;5018953;28;20415;-66
2022/05/17 05:18:11;;;;;;;;;;;19.70;52.30;;;;;;5021317;28;19952;-65
2022/05/17 05:20:43;;;;;;;;;;;19.60;52.00;;;;;;5019715;28;19920;-65
2022/05/17 05:23:11;;;;;;;;;;;19.60;52.40;;;;;;5018254;28;19917;-66
2022/05/17 05:25:38;;;;;;;;;;;19.60;53.70;;;;;;5024164;28;19928;-66
2022/05/17 05:28:08;;;;;;;;;;;19.60;52.70;;;;;;5013699;28;19920;-65
2022/05/17 05:30:35;;;;;;;;;;;19.60;52.40;;;;;;5024881;28;19913;-65
2022/05/17 05:33:02;;;;;;;;;;;19.60;51.90;;;;;;5028369;28;19909;-66
2022/05/17 05:35:29;;;;;;;;;;;19.60;52.70;;;;;;5018966;28;20727;-66
2022/05/17 05:37:56;;;;;;;;;;;19.50;50.90;;;;;;5023784;28;20616;-66
2022/05/17 05:40:22;;;;;;;;;;;19.40;50.60;;;;;;5014387;28;19963;-66
2022/05/17 05:42:50;;;;;;;;;;;19.40;51.40;;;;;;5021639;28;19917;-66
2022/05/17 05:45:20;;;;;;;;;;;19.30;52.50;;;;;;5017731;28;19948;-66
2022/05/17 05:47:47;;;;;;;;;;;19.20;53.20;;;;;;5016741;28;20210;-66
2022/05/17 05:50:13;;;;;;;;;;;19.00;52.70;;;;;;5017373;28;19916;-66
2022/05/17 05:52:40;;;;;;;;;;;19.00;55.60;;;;;;5014835;28;19913;-66
2022/05/17 05:55:08;;;;;;;;;;;18.90;55.10;;;;;;5020848;28;19955;-66
2022/05/17 05:57:34;;;;;;;;;;;18.80;55.10;;;;;;5018114;28;19920;-66
2022/05/17 06:00:01;;;;;;;;;;;18.90;52.90;;;;;;5025061;28;20443;-66
2022/05/17 06:02:28;;;;;;;;;;;18.70;53.50;;;;;;5015057;28;20369;-66
2022/05/17 06:04:54;;;;;;;;;;;18.70;54.90;;;;;;5018471;28;19975;-66
2022/05/17 06:07:21;;;;;;;;;;;18.70;56.30;;;;;;5024489;28;19975;-66
2022/05/17 06:09:47;;;;;;;;;;;18.60;56.20;;;;;;5024134;28;19909;-66
2022/05/17 06:12:15;;;;;;;;;;;18.60;57.10;;;;;;5014408;28;19909;-67
2022/05/17 06:14:41;;;;;;;;;;;18.40;57.80;;;;;;5017325;28;20004;-66
2022/05/17 06:17:08;;;;;;;;;;;18.30;58.90;;;;;;5015876;28;19921;-66
2022/05/17 06:19:35;;;;;;;;;;;18.30;59.20;;;;;;5017380;28;19913;-66
2022/05/17 06:22:02;;;;;;;;;;;18.20;60.00;;;;;;5018513;28;20412;-67
2022/05/17 06:24:28;;;;;;;;;;;18.20;59.00;;;;;;5022795;28;19917;-66
2022/05/17 06:26:55;;;;;;;;;;;18.10;59.10;;;;;;5018419;28;19909;-65
2022/05/17 06:29:22;;;;;;;;;;;18.10;58.30;;;;;;5017155;28;20190;-63
2022/05/17 06:31:48;;;;;;;;;;;18.00;58.40;;;;;;5019310;28;20513;-63
2022/05/17 06:34:15;;;;;;;;;;;17.90;59.90;;;;;;5018259;28;19905;-63
2022/05/17 06:36:44;;;;;;;;;;;18.00;59.10;;;;;;5022018;28;19924;-63
2022/05/17 06:39:11;;;;;;;;;;;17.90;59.20;;;;;;5020715;28;19978;-63
2022/05/17 06:41:38;;;;;;;;;;;17.70;60.50;;;;;;5022707;28;19917;-62
2022/05/17 06:44:06;;;;;;;;;;;17.60;61.20;;;;;;5018799;28;19947;-63
2022/05/17 06:46:33;;;;;;;;;;;17.40;61.30;;;;;;5023860;28;19909;-63
2022/05/17 06:48:59;;;;;;;;;;;17.20;61.70;;;;;;5017879;28;19925;-64
2022/05/17 06:51:26;;;;;;;;;;;17.10;62.00;;;;;;5018242;28;19909;-62
2022/05/17 06:53:52;;;;;;;;;;;16.80;64.80;;;;;;5019514;28;19913;-63
2022/05/17 06:56:19;;;;;;;;;;;16.70;65.00;;;;;;5020393;28;20026;-61
2022/05/17 06:58:46;;;;;;;;;;;16.50;64.20;;;;;;5029766;28;20000;-61
2022/05/17 07:01:12;;;;;;;;;;;16.40;65.60;;;;;;5026658;28;20051;-61
2022/05/17 07:03:39;;;;;;;;;;;16.20;65.90;;;;;;5027147;28;19919;-62
2022/05/17 07:06:06;;;;;;;;;;;16.10;65.70;;;;;;5026253;28;19908;-62
2022/05/17 07:08:32;;;;;;;;;;;15.90;65.30;;;;;;5024357;28;19917;-63
2022/05/17 07:13:44;;;;;;;;;;;15.50;65.10;;;;;;5021266;28;19917;-62
2022/05/17 07:16:11;;;;;;;;;;;15.30;66.00;;;;;;5023464;28;20003;-62
2022/05/17 07:18:37;;;;;;;;;;;15.20;67.20;;;;;;5027725;28;19916;-62
2022/05/17 07:21:04;;;;;;;;;;;15.20;66.80;;;;;;5023003;28;20103;-65
2022/05/17 07:23:31;;;;;;;;;;;15.10;68.20;;;;;;5028519;28;19917;-66
2022/05/17 07:25:58;;;;;;;;;;;15.00;68.50;;;;;;5023946;28;19932;-66
2022/05/17 07:28:24;;;;;;;;;;;14.80;69.20;;;;;;5024501;28;19912;-65
2022/05/17 07:30:51;;;;;;;;;;;14.70;69.80;;;;;;5026818;28;19909;-65
2022/05/17 07:33:19;;;;;;;;;;;14.50;70.80;;;;;;5019661;28;20358;-64
2022/05/17 07:35:45;;;;;;;;;;;14.40;71.40;;;;;;5025497;28;19909;-64
2022/05/17 07:38:12;;;;;;;;;;;14.30;71.70;;;;;;5017465;28;19944;-65
2022/05/17 07:40:39;;;;;;;;;;;14.20;72.10;;;;;;5024001;28;20690;-63
2022/05/17 07:43:06;;;;;;;;;;;14.20;72.20;;;;;;5028044;28;19954;-62
2022/05/17 07:45:32;;;;;;;;;;;14.20;70.00;;;;;;5025984;28;19955;-62
2022/05/17 07:48:01;;;;;;;;;;;14.20;69.90;;;;;;5016163;28;19944;-62
2022/05/17 07:50:28;;;;;;;;;;;14.10;70.60;;;;;;5028355;28;19921;-63
2022/05/17 07:52:54;;;;;;;;;;;14.00;72.40;;;;;;5015302;28;19913;-61
2022/05/17 07:55:21;;;;;;;;;;;13.90;72.00;;;;;;5017909;28;20425;-62
2022/05/17 07:57:48;;;;;;;;;;;13.80;72.40;;;;;;5025019;28;19917;-62
2022/05/17 08:00:14;;;;;;;;;;;13.60;73.50;;;;;;5026591;28;19929;-61
2022/05/17 08:02:42;;;;;;;;;;;13.40;74.30;;;;;;5023114;28;19909;-62
2022/05/17 08:05:10;;;;;;;;;;;13.30;74.90;;;;;;5021464;28;19906;-62
2022/05/17 08:07:36;;;;;;;;;;;13.10;76.20;;;;;;5024932;28;19917;-61
2022/05/17 08:10:03;;;;;;;;;;;13.00;78.30;;;;;;5015217;28;19905;-61
2022/05/17 08:12:30;;;;;;;;;;;12.90;78.20;;;;;;5026937;28;19913;-62
2022/05/17 08:14:56;;;;;;;;;;;12.70;78.40;;;;;;5026901;28;19916;-62
2022/05/17 08:17:23;;;;;;;;;;;12.80;78.50;;;;;;5024491;28;20392;-61
2022/05/17 08:19:50;;;;;;;;;;;12.90;78.00;;;;;;5019696;28;19964;-61
2022/05/17 08:22:16;;;;;;;;;;;13.10;79.50;;;;;;5021165;28;19909;-62
2022/05/17 08:27:37;;;;;;;;;;;13.00;77.00;;;;;;5017233;28;19916;-61
2022/05/17 08:30:08;;;;;;;;;;;13.00;76.40;;;;;;5023333;28;19944;-62
2022/05/17 08:35:19;;;;;;;;;;;12.90;77.00;;;;;;5024590;28;19925;-66
2022/05/17 08:37:46;;;;;;;;;;;12.90;76.50;;;;;;5016701;28;19975;-60
2022/05/17 08:40:22;;;;;;;;;;;12.90;76.10;;;;;;5027096;28;20389;-61
2022/05/17 08:43:04;;;;;;;;;;;12.90;75.60;;;;;;5018192;28;19921;-61
2022/05/17 08:45:39;;;;;;;;;;;13.00;76.00;;;;;;5022461;28;19909;-64
2022/05/17 08:48:09;;;;;;;;;;;12.90;75.20;;;;;;5010822;28;19918;-63
2022/05/17 08:50:37;;;;;;;;;;;12.90;74.40;;;;;;5014206;28;19916;-62
2022/05/17 08:53:05;;;;;;;;;;;12.90;74.30;;;;;;5015743;28;19920;-61
2022/05/17 08:55:38;;;;;;;;;;;12.90;75.30;;;;;;5022117;28;19997;-61
2022/05/17 08:58:23;;;;;;;;;;;12.90;74.50;;;;;;5018376;28;19921;-61
2022/05/17 09:01:15;;;;;;;;;;;12.90;74.70;;;;;;5023617;28;20328;-62
2022/05/17 09:03:53;;;;;;;;;;;12.80;74.50;;;;;;5018281;28;20393;-62
2022/05/17 09:06:22;;;;;;;;;;;12.60;74.70;;;;;;5021208;28;19918;-62
2022/05/17 09:09:14;;;;;;;;;;;12.60;75.10;;;;;;5021245;28;20019;-61
2022/05/17 09:11:46;;;;;;;;;;;12.50;76.50;;;;;;5018672;28;19912;-62
2022/05/17 09:14:16;;;;;;;;;;;12.40;76.70;;;;;;5023879;28;19913;-62
2022/05/17 09:17:08;;;;;;;;;;;12.20;77.10;;;;;;5027718;28;20494;-62
2022/05/17 09:19:35;;;;;;;;;;;12.10;78.00;;;;;;5011615;28;19909;-62
2022/05/17 09:22:02;;;;;;;;;;;12.00;80.60;;;;;;5022298;28;20439;-62
2022/05/17 09:24:30;;;;;;;;;;;12.00;80.30;;;;;;5022665;28;19924;-60
2022/05/17 09:27:09;;;;;;;;;;;11.90;81.10;;;;;;5019367;28;19913;-61
2022/05/17 09:29:36;;;;;;;;;;;11.90;80.60;;;;;;5018442;28;19913;-61
2022/05/17 09:32:06;;;;;;;;;;;11.90;80.80;;;;;;5013774;28;19916;-62
2022/05/17 09:34:34;;;;;;;;;;;11.80;81.00;;;;;;5009933;28;20079;-62
2022/05/17 09:37:09;;;;;;;;;;;11.70;81.00;;;;;;5018503;28;19971;-62
2022/05/17 09:39:36;;;;;;;;;;;11.60;80.80;;;;;;5013881;28;19916;-62
2022/05/17 09:42:04;;;;;;;;;;;11.50;81.10;;;;;;5019170;28;19962;-62
2022/05/17 09:44:33;;;;;;;;;;;11.40;81.80;;;;;;5026355;28;19955;-64
2022/05/17 09:47:01;;;;;;;;;;;11.40;82.60;;;;;;5024242;28;19909;-64
2022/05/17 09:52:45;;;;;;;;;;;11.20;82.70;;;;;;5020857;28;20317;-62
2022/05/17 09:55:21;;;;;;;;;;;11.10;82.50;;;;;;5025218;28;19913;-61
2022/05/17 09:58:05;;;;;;;;;;;11.10;83.20;;;;;;5020087;28;19917;-61
2022/05/17 10:00:32;;;;;;;;;;;11.00;83.50;;;;;;5017576;28;19910;-62
2022/05/17 10:03:00;;;;;;;;;;;10.90;83.80;;;;;;5022485;28;19923;-62
2022/05/17 10:05:44;;;;;;;;;;;10.80;83.70;;;;;;5020249;28;19980;-62
2022/05/17 10:08:14;;;;;;;;;;;10.70;83.30;;;;;;5017964;28;20019;-61
2022/05/17 10:10:42;;;;;;;;;;;10.70;83.40;;;;;;5024184;28;20030;-59
2022/05/17 10:13:21;;;;;;;;;;;10.60;83.70;;;;;;5030299;28;19913;-60
2022/05/17 10:15:51;;;;;;;;;;;10.60;83.90;;;;;;5025506;28;19975;-59
2022/05/17 10:18:20;;;;;;;;;;;10.50;83.50;;;;;;5029552;28;19913;-60
2022/05/17 10:20:49;;;;;;;;;;;10.40;83.90;;;;;;5029745;28;19913;-61
2022/05/17 10:23:30;;;;;;;;;;;10.50;85.00;;;;;;5025543;28;19913;-60
2022/05/17 10:26:17;;;;;;;;;;;10.60;84.80;;;;;;5015050;28;19940;-63
2022/05/17 10:29:14;;;;;;;;;;;10.70;83.10;;;;;;5014614;28;19913;-61
2022/05/17 10:32:03;;;;;;;;;;;10.60;83.00;;;;;;5018705;28;20004;-61
2022/05/17 10:34:30;;;;;;;;;;;10.50;84.20;;;;;;5025920;28;19912;-61
2022/05/17 10:37:03;;;;;;;;;;;10.50;83.90;;;;;;5024997;28;19928;-60
2022/05/17 10:39:47;;;;;;;;;;;10.40;83.40;;;;;;5023093;28;19913;-60
2022/05/17 10:42:14;;;;;;;;;;;10.30;83.30;;;;;;5024167;28;19959;-60
2022/05/17 10:44:45;;;;;;;;;;;10.10;84.30;;;;;;5025354;28;19921;-60
2022/05/17 10:47:15;;;;;;;;;;;10.10;85.20;;;;;;5019890;28;19912;-60
2022/05/17 10:49:50;;;;;;;;;;;10.00;86.00;;;;;;5024610;28;19920;-61
2022/05/17 10:52:37;;;;;;;;;;;10.00;86.60;;;;;;5019680;28;20350;-61
2022/05/17 10:55:24;;;;;;;;;;;10.00;86.40;;;;;;5019207;28;19917;-61
2022/05/17 10:58:04;;;;;;;;;;;10.00;86.50;;;;;;5020269;28;20377;-61
2022/05/17 11:00:31;;;;;;;;;;;9.90;85.70;;;;;;5022590;28;19909;-64
2022/05/17 11:02:58;;;;;;;;;;;9.90;85.50;;;;;;5026705;28;20000;-61
2022/05/17 11:05:28;;;;;;;;;;;9.80;86.00;;;;;;5022711;28;19909;-61
2022/05/17 11:08:20;;;;;;;;;;;9.80;85.30;;;;;;5023392;28;20432;-60
2022/05/17 11:10:50;;;;;;;;;;;9.70;85.10;;;;;;5008554;28;19913;-60
2022/05/17 11:13:16;;;;;;;;;;;9.60;84.90;;;;;;5017892;28;19999;-60
2022/05/17 11:15:47;;;;;;;;;;;9.50;85.20;;;;;;5020349;28;19914;-60
2022/05/17 11:18:25;;;;;;;;;;;9.50;85.50;;;;;;5021499;28;20559;-61
2022/05/17 11:20:57;;;;;;;;;;;9.30;85.90;;;;;;5024519;28;20709;-61
2022/05/17 11:23:41;;;;;;;;;;;9.20;87.00;;;;;;5025595;28;19928;-61
2022/05/17 11:26:27;;;;;;;;;;;9.20;87.30;;;;;;5021398;28;20251;-60
2022/05/17 11:28:53;;;;;;;;;;;9.10;86.40;;;;;;5025841;28;19912;-61
2022/05/17 11:31:38;;;;;;;;;;;9.00;87.70;;;;;;5029184;28;19995;-61
2022/05/17 11:34:23;;;;;;;;;;;9.00;89.10;;;;;;5029057;28;20723;-61
2022/05/17 11:36:50;;;;;;;;;;;8.90;88.90;;;;;;5020226;28;19924;-61
2022/05/17 11:39:35;;;;;;;;;;;8.90;88.70;;;;;;5019582;28;20414;-61
2022/05/17 11:42:19;;;;;;;;;;;8.80;88.50;;;;;;5022259;28;20284;-61
2022/05/17 11:44:47;;;;;;;;;;;8.70;88.80;;;;;;5015128;28;19920;-61
2022/05/17 11:47:34;;;;;;;;;;;8.60;90.20;;;;;;5024357;28;19966;-61
2022/05/17 11:50:18;;;;;;;;;;;8.60;90.00;;;;;;5018130;28;19924;-63
2022/05/17 11:52:46;;;;;;;;;;;8.60;90.30;;;;;;5019876;28;19909;-62
2022/05/17 11:55:17;;;;;;;;;;;8.50;89.90;;;;;;5017373;28;19913;-61
2022/05/17 11:57:44;;;;;;;;;;;8.50;89.80;;;;;;5022532;28;19916;-61
2022/05/17 12:00:30;;;;;;;;;;;8.40;90.00;;;;;;5022705;28;19986;-59
2022/05/17 12:02:58;;;;;;;;;;;8.40;90.20;;;;;;5024843;28;19916;-61
2022/05/17 12:05:43;;;;;;;;;;;8.40;89.90;;;;;;5028495;28;19917;-61
2022/05/17 12:08:28;;;;;;;;;;;8.40;89.70;;;;;;5028067;28;19925;-61
2022/05/17 12:11:01;;;;;;;;;;;8.40;89.50;;;;;;5022270;28;19992;-61
2022/05/17 12:13:29;;;;;;;;;;;8.40;90.00;;;;;;5027202;28;19915;-61
2022/05/17 12:15:56;;;;;;;;;;;8.30;90.00;;;;;;5030649;28;20008;-61
2022/05/17 12:18:25;;;;;;;;;;;8.40;90.20;;;;;;5027131;28;19919;-61
2022/05/17 12:21:10;;;;;;;;;;;8.40;89.30;;;;;;5028474;28;20126;-59
2022/05/17 12:23:58;;;;;;;;;;;8.40;89.00;;;;;;5029613;28;19909;-60
2022/05/17 12:26:34;;;;;;;;;;;8.40;89.10;;;;;;5025420;28;19941;-60
2022/05/17 12:30:53;;;;;;;;;;;8.30;88.80;;;;;;5029362;28;19913;-63
2022/05/17 12:31:58;;;;;;;;;;;8.40;89.40;;;;;;5023408;28;19991;-60
2022/05/17 12:34:25;;;;;;;;;;;8.40;89.00;;;;;;5026077;28;20267;-59
2022/05/17 12:36:51;;;;;;;;;;;8.40;88.40;;;;;;5016986;28;19917;-60
2022/05/17 12:44:55;;;;;;;;;;;8.30;88.30;;;;;;5023304;28;19920;-60
2022/05/17 12:47:22;;;;;;;;;;;8.30;89.00;;;;;;5025167;28;19913;-60
2022/05/17 12:49:57;;;;;;;;;;;8.30;88.50;;;;;;5022082;28;19909;-60
2022/05/17 12:52:29;;;;;;;;;;;8.30;88.50;;;;;;5024848;28;19920;-60
2022/05/17 12:54:59;;;;;;;;;;;8.30;88.10;;;;;;5019809;28;19992;-60
2022/05/17 12:57:31;;;;;;;;;;;8.20;88.00;;;;;;5017378;28;19913;-60
2022/05/17 13:00:10;;;;;;;;;;;8.10;88.90;;;;;;5013600;28;19996;-60
2022/05/17 13:02:40;;;;;;;;;;;8.00;88.00;;;;;;5024111;28;20000;-60
2022/05/17 13:05:25;;;;;;;;;;;8.00;87.30;;;;;;5022738;28;19916;-61
2022/05/17 13:08:02;;;;;;;;;;;7.90;88.00;;;;;;5019143;28;20054;-61
2022/05/17 13:10:29;;;;;;;;;;;7.90;88.20;;;;;;5018147;28;20417;-61
2022/05/17 13:12:55;;;;;;;;;;;7.90;88.50;;;;;;5018731;28;20354;-61
2022/05/17 13:15:22;;;;;;;;;;;7.90;89.30;;;;;;5015177;28;20092;-60
2022/05/17 13:17:52;;;;;;;;;;;7.90;89.00;;;;;;5012772;28;19927;-61
2022/05/17 13:20:23;;;;;;;;;;;7.90;90.10;;;;;;5026481;28;19909;-60
2022/05/17 13:22:54;;;;;;;;;;;7.90;89.40;;;;;;5017283;28;20015;-60
2022/05/17 13:25:25;;;;;;;;;;;7.80;89.60;;;;;;5021233;28;20769;-60
2022/05/17 13:27:52;;;;;;;;;;;7.70;89.40;;;;;;5022618;28;19924;-60
2022/05/17 13:30:22;;;;;;;;;;;7.60;90.10;;;;;;5018299;28;19916;-61
2022/05/17 13:32:49;;;;;;;;;;;7.50;90.50;;;;;;5025332;28;19913;-60
2022/05/17 13:35:20;;;;;;;;;;;7.50;90.70;;;;;;5026193;28;19909;-61
2022/05/17 13:37:54;;;;;;;;;;;7.40;90.70;;;;;;5018861;28;19952;-61
2022/05/17 13:40:39;;;;;;;;;;;7.30;90.70;;;;;;5025140;28;19913;-60
2022/05/17 13:43:24;;;;;;;;;;;7.30;91.20;;;;;;5022127;28;19920;-61
2022/05/17 13:45:57;;;;;;;;;;;7.20;91.40;;;;;;5029542;28;19913;-61
2022/05/17 13:48:25;;;;;;;;;;;7.20;91.80;;;;;;5023922;28;19913;-60
2022/05/17 13:50:53;;;;;;;;;;;7.20;92.10;;;;;;5021230;28;19912;-60
2022/05/17 13:53:20;;;;;;;;;;;7.20;92.20;;;;;;5022305;28;20353;-60
2022/05/17 13:55:48;;;;;;;;;;;7.20;92.40;;;;;;5023929;28;19909;-61
2022/05/17 13:58:14;;;;;;;;;;;7.10;92.50;;;;;;5026917;28;19921;-61
2022/05/17 14:01:01;;;;;;;;;;;7.10;92.60;;;;;;5016577;28;19914;-61
2022/05/17 14:03:28;;;;;;;;;;;7.10;92.60;;;;;;5014015;28;19917;-59
2022/05/17 14:05:58;;;;;;;;;;;7.10;92.50;;;;;;5011225;28;19909;-60
2022/05/17 14:14:10;;;;;;;;;;;6.90;92.90;;;;;;5009587;28;20132;-62
2022/05/17 14:16:41;;;;;;;;;;;6.90;92.90;;;;;;5013963;28;19964;-63
2022/05/17 14:19:12;;;;;;;;;;;6.90;93.10;;;;;;5020307;28;19916;-61
2022/05/17 14:21:38;;;;;;;;;;;6.90;93.20;;;;;;5026573;28;19909;-61
2022/05/17 14:24:05;;;;;;;;;;;6.90;93.30;;;;;;5008420;28;19989;-61
2022/05/17 14:26:32;;;;;;;;;;;6.90;93.30;;;;;;5025265;28;19909;-62
2022/05/17 14:28:58;;;;;;;;;;;6.90;93.00;;;;;;5027216;28;20366;-62
2022/05/17 14:31:27;;;;;;;;;;;6.80;93.20;;;;;;5026635;28;19905;-62
2022/05/17 14:33:54;;;;;;;;;;;6.80;93.20;;;;;;5026556;28;19909;-62
2022/05/17 14:36:23;;;;;;;;;;;6.80;92.90;;;;;;5027288;28;19923;-61
2022/05/17 14:38:49;;;;;;;;;;;6.70;92.80;;;;;;5020775;28;19913;-62
2022/05/17 14:41:16;;;;;;;;;;;6.60;93.00;;;;;;5006879;28;19905;-62
2022/05/17 14:43:43;;;;;;;;;;;6.60;93.30;;;;;;5008506;28;20314;-61
2022/05/17 14:46:11;;;;;;;;;;;6.60;92.80;;;;;;5008238;28;19909;-61
2022/05/17 14:48:38;;;;;;;;;;;6.60;93.20;;;;;;5008339;28;20416;-63
2022/05/17 14:51:06;;;;;;;;;;;6.50;93.00;;;;;;5015360;28;19931;-62
2022/05/17 14:53:33;;;;;;;;;;;6.50;93.20;;;;;;5026721;28;19992;-62
2022/05/17 14:56:00;;;;;;;;;;;6.50;93.30;;;;;;5027514;28;19909;-62
2022/05/17 14:58:26;;;;;;;;;;;6.50;93.50;;;;;;5030669;28;19909;-62
2022/05/17 15:00:53;;;;;;;;;;;6.50;93.40;;;;;;5029146;28;19940;-61